Time;durP1;ratioP1;P1;durP2;ratioP2;P2;SDS_P1;SDS_P2;PMS_P1;PMS_P2;Temp;Humidity;BMP_temperature;BMP_pressure;BME280_temperature;BME280_humidity;BME280_pressure;Samples;Min_cycle;Max_cycle;Signal;HPM_P1;HPM_P2
2022/04/03 00:00:34;;;;;;;11.60;4.28;;;2.40;99.90;;;;;;5031206;28;20049;-72
2022/04/03 00:03:01;;;;;;;9.00;4.20;;;2.40;99.90;;;;;;5015518;28;20042;-72
2022/04/03 00:05:27;;;;;;;9.90;4.80;;;2.70;99.90;;;;;;5032026;28;20045;-72
2022/04/03 00:07:54;;;;;;;8.95;3.97;;;2.50;99.90;;;;;;5032040;28;20049;-72
2022/04/03 00:10:22;;;;;;;6.32;4.10;;;2.40;99.90;;;;;;5032123;28;20112;-72
2022/04/03 00:12:48;;;;;;;7.90;4.15;;;3.20;99.90;;;;;;5035512;28;20045;-72
2022/04/03 00:15:14;;;;;;;9.10;3.83;;;2.40;99.90;;;;;;5018660;28;20048;-72
2022/04/03 00:17:41;;;;;;;7.85;4.05;;;2.40;99.90;;;;;;5034241;28;20467;-72
2022/04/03 00:20:08;;;;;;;8.25;4.03;;;2.40;99.90;;;;;;5034908;28;20049;-72
2022/04/03 00:22:34;;;;;;;7.22;4.07;;;2.30;99.90;;;;;;5018639;28;20068;-72
2022/04/03 00:25:00;;;;;;;11.93;4.38;;;2.30;99.90;;;;;;5018590;28;20500;-72
2022/04/03 00:27:26;;;;;;;8.30;4.32;;;2.30;99.90;;;;;;5018510;28;20052;-72
2022/04/03 00:29:52;;;;;;;8.82;3.83;;;2.40;99.90;;;;;;4998702;28;20038;-72
2022/04/03 00:32:17;;;;;;;8.85;3.63;;;2.40;99.90;;;;;;5024753;28;20037;-72
2022/04/03 00:34:43;;;;;;;7.80;3.92;;;2.50;99.90;;;;;;5035079;28;20048;-72
2022/04/03 00:37:09;;;;;;;7.75;4.10;;;2.50;99.90;;;;;;5034795;28;20052;-72
2022/04/03 00:39:35;;;;;;;7.20;3.63;;;2.50;99.90;;;;;;5034736;28;20049;-72
2022/04/03 00:42:01;;;;;;;5.93;3.65;;;2.50;99.90;;;;;;5018616;28;20037;-72
2022/04/03 00:44:26;;;;;;;7.75;3.42;;;2.50;99.90;;;;;;5034325;28;20045;-72
2022/04/03 00:46:52;;;;;;;10.57;3.67;;;2.40;99.90;;;;;;5017463;28;20091;-72
2022/04/03 00:49:18;;;;;;;7.78;3.38;;;2.40;99.90;;;;;;5034769;28;20043;-72
2022/04/03 00:51:44;;;;;;;9.15;3.30;;;2.30;99.90;;;;;;5018626;28;20388;-72
2022/04/03 00:54:10;;;;;;;5.82;3.25;;;2.30;99.90;;;;;;5034795;28;20032;-72
2022/04/03 00:56:36;;;;;;;6.35;3.65;;;2.30;99.90;;;;;;5018398;28;20366;-72
2022/04/03 00:59:02;;;;;;;7.05;3.83;;;2.20;99.90;;;;;;5052347;28;20315;-72
2022/04/03 01:01:28;;;;;;;7.03;4.00;;;2.30;99.90;;;;;;5018276;28;20042;-72
2022/04/03 01:03:54;;;;;;;5.93;3.10;;;2.20;99.90;;;;;;5051271;28;20040;-72
2022/04/03 01:06:20;;;;;;;8.80;3.08;;;3.00;99.90;;;;;;5034628;28;20045;-73
2022/04/03 01:08:45;;;;;;;6.00;3.00;;;2.20;99.90;;;;;;5034338;28;20367;-73
2022/04/03 01:11:20;;;;;;;7.47;4.47;;;2.20;99.90;;;;;;5001579;28;20545;-73
2022/04/03 01:13:48;;;;;;;10.05;3.08;;;2.30;99.90;;;;;;5034333;28;20091;-73
2022/04/03 01:16:14;;;;;;;9.82;3.38;;;2.20;99.90;;;;;;5034297;28;20071;-73
2022/04/03 01:18:40;;;;;;;6.82;3.30;;;2.20;99.90;;;;;;4998289;28;20394;-73
2022/04/03 01:21:06;;;;;;;6.43;3.53;;;2.30;99.90;;;;;;5017069;28;20409;-73
2022/04/03 01:23:32;;;;;;;7.80;3.45;;;2.20;99.90;;;;;;5034457;28;20040;-73
2022/04/03 01:25:58;;;;;;;6.25;3.33;;;2.20;99.90;;;;;;5033684;28;20378;-73
2022/04/03 01:28:26;;;;;;;7.43;3.40;;;2.20;99.90;;;;;;5017471;28;20134;-73
2022/04/03 01:30:52;;;;;;;7.72;3.35;;;2.20;99.90;;;;;;5026219;28;20060;-72
2022/04/03 01:33:18;;;;;;;9.50;3.60;;;2.20;99.90;;;;;;5025578;28;20041;-73
2022/04/03 01:35:45;;;;;;;6.90;3.45;;;2.10;99.90;;;;;;5001446;28;20037;-72
2022/04/03 01:38:11;;;;;;;8.02;3.50;;;2.10;99.90;;;;;;5016478;28;20086;-72
2022/04/03 01:40:37;;;;;;;6.13;3.22;;;2.10;99.90;;;;;;5034427;28;20052;-72
2022/04/03 01:43:04;;;;;;;9.77;3.75;;;2.10;99.90;;;;;;5017465;28;20045;-72
2022/04/03 01:45:31;;;;;;;7.18;3.10;;;2.10;99.90;;;;;;5033885;28;20489;-79
2022/04/03 01:47:57;;;;;;;6.72;3.47;;;2.10;99.90;;;;;;5018133;28;20047;-79
2022/04/03 01:50:23;;;;;;;10.48;3.40;;;2.10;99.90;;;;;;5033994;28;20041;-79
2022/04/03 01:52:48;;;;;;;8.73;4.43;;;2.80;99.90;;;;;;5034258;28;20049;-79
2022/04/03 01:55:18;;;;;;;7.82;3.75;;;2.20;99.90;;;;;;5034480;28;20064;-80
2022/04/03 01:57:47;;;;;;;8.98;3.35;;;1.50;99.90;;;;;;5038180;28;20097;-80
2022/04/03 02:00:13;;;;;;;8.85;3.88;;;3.10;99.90;;;;;;5038187;28;20076;-81
2022/04/03 02:02:41;;;;;;;8.63;3.70;;;2.10;99.90;;;;;;5038863;28;20041;-81
2022/04/03 02:05:08;;;;;;;8.57;3.92;;;2.10;99.90;;;;;;5021876;28;20106;-81
2022/04/03 02:07:36;;;;;;;6.97;3.83;;;2.20;99.90;;;;;;5022042;28;20048;-81
2022/04/03 02:10:12;;;;;;;9.80;3.70;;;2.20;99.90;;;;;;5020829;28;20048;-80
2022/04/03 02:12:39;;;;;;;6.82;3.70;;;3.40;99.90;;;;;;5033245;28;20049;-80
2022/04/03 02:15:07;;;;;;;10.30;3.70;;;2.30;99.90;;;;;;5035613;28;20034;-80
2022/04/03 02:17:33;;;;;;;7.03;3.08;;;2.40;99.90;;;;;;5001707;28;20053;-80
2022/04/03 02:19:59;;;;;;;6.22;3.33;;;2.50;99.90;;;;;;5035569;28;20037;-80
2022/04/03 02:22:24;;;;;;;7.72;3.25;;;2.50;99.90;;;;;;5034756;28;20385;-80
2022/04/03 02:24:50;;;;;;;10.10;3.60;;;2.50;99.90;;;;;;5018141;28;20132;-80
2022/04/03 02:27:22;;;;;;;6.82;3.10;;;3.20;99.90;;;;;;5017824;28;20033;-80
2022/04/03 02:29:50;;;;;;;9.13;3.70;;;3.40;99.90;;;;;;5033132;28;20143;-80
2022/04/03 02:32:16;;;;;;;7.57;3.20;;;3.50;99.90;;;;;;5018185;28;20049;-79
2022/04/03 02:34:42;;;;;;;10.40;3.33;;;2.70;99.90;;;;;;5017112;28;20052;-80
2022/04/03 02:37:08;;;;;;;5.07;3.25;;;2.20;99.90;;;;;;5034336;28;20037;-79
2022/04/03 02:39:36;;;;;;;7.22;3.78;;;2.70;99.90;;;;;;5018049;28;20048;-79
2022/04/03 02:42:04;;;;;;;5.40;3.05;;;2.80;99.90;;;;;;5017663;28;20037;-79
2022/04/03 02:44:30;;;;;;;7.75;3.20;;;2.90;99.90;;;;;;5016590;28;20045;-81
2022/04/03 02:46:58;;;;;;;7.88;3.45;;;3.30;99.90;;;;;;5034202;28;20045;-81
2022/04/03 02:49:24;;;;;;;8.48;3.28;;;3.50;99.90;;;;;;5034985;28;20377;-80
2022/04/03 02:51:52;;;;;;;7.10;3.28;;;3.30;99.90;;;;;;5034110;28;20125;-81
2022/04/03 02:54:18;;;;;;;10.07;3.63;;;2.90;99.90;;;;;;5017733;28;20038;-80
2022/04/03 02:56:44;;;;;;;8.70;3.17;;;3.30;99.90;;;;;;5017712;28;20375;-81
2022/04/03 02:59:28;;;;;;;4.90;2.53;;;2.40;99.90;;;;;;5035090;28;20045;-81
2022/04/03 03:01:54;;;;;;;6.13;2.20;;;2.50;99.90;;;;;;5016327;28;20049;-79
2022/04/03 03:04:19;;;;;;;4.18;1.45;;;3.20;99.90;;;;;;5033535;28;20613;-80
2022/04/03 03:06:45;;;;;;;3.45;1.42;;;2.10;99.90;;;;;;5032408;28;20045;-80
2022/04/03 03:09:11;;;;;;;2.53;1.30;;;2.30;99.90;;;;;;5033393;28;20490;-80
2022/04/03 03:11:37;;;;;;;4.55;1.63;;;2.50;99.90;;;;;;5016708;28;20054;-80
2022/04/03 03:14:03;;;;;;;3.97;1.52;;;2.80;99.90;;;;;;5001244;28;20128;-82
2022/04/03 03:16:29;;;;;;;3.65;1.45;;;1.90;99.90;;;;;;5016923;28;20046;-80
2022/04/03 03:18:55;;;;;;;3.70;1.50;;;2.30;99.90;;;;;;5015956;28;20042;-79
2022/04/03 03:21:21;;;;;;;3.85;1.67;;;2.80;99.90;;;;;;5016392;28;20401;-80
2022/04/03 03:23:46;;;;;;;3.53;1.40;;;2.30;99.90;;;;;;5034896;28;20049;-79
2022/04/03 03:26:12;;;;;;;3.10;1.40;;;3.10;99.90;;;;;;5033388;28;20545;-79
2022/04/03 03:28:41;;;;;;;3.95;1.58;;;2.40;99.90;;;;;;5016561;28;20057;-80
2022/04/03 03:31:06;;;;;;;5.00;1.55;;;2.50;99.90;;;;;;5016800;28;20037;-80
2022/04/03 03:33:34;;;;;;;6.22;1.70;;;2.50;99.90;;;;;;5017285;28;20068;-79
2022/04/03 03:36:00;;;;;;;5.90;2.40;;;3.50;99.90;;;;;;5015965;28;20095;-80
2022/04/03 03:38:29;;;;;;;3.92;1.70;;;2.40;99.90;;;;;;5016676;28;20041;-81
2022/04/03 03:40:55;;;;;;;5.03;1.38;;;2.50;99.90;;;;;;5033177;28;20038;-81
2022/04/03 03:43:21;;;;;;;3.42;1.30;;;2.60;99.90;;;;;;5016390;28;20087;-80
2022/04/03 03:45:47;;;;;;;2.90;1.45;;;2.80;99.90;;;;;;5034401;28;20068;-80
2022/04/03 03:48:13;;;;;;;2.60;1.40;;;2.80;99.90;;;;;;5033285;28;20053;-81
2022/04/03 03:50:39;;;;;;;3.25;1.90;;;3.20;99.90;;;;;;5032842;28;20405;-80
2022/04/03 03:53:04;;;;;;;6.38;1.75;;;2.70;99.90;;;;;;5031747;28;20116;-81
2022/04/03 03:55:32;;;;;;;5.50;1.58;;;3.60;99.90;;;;;;5033073;28;20068;-80
2022/04/03 03:57:58;;;;;;;4.82;1.80;;;2.70;99.90;;;;;;5032640;28;20492;-80
2022/04/03 04:00:25;;;;;;;3.17;1.45;;;2.70;99.90;;;;;;5033011;28;20037;-80
2022/04/03 04:02:53;;;;;;;2.83;1.55;;;2.70;99.90;;;;;;5016364;28;20041;-80
2022/04/03 04:05:19;;;;;;;2.85;1.70;;;2.60;99.90;;;;;;4999664;28;20128;-80
2022/04/03 04:07:49;;;;;;;2.47;1.70;;;2.60;99.90;;;;;;5032900;28;20355;-80
2022/04/03 04:10:16;;;;;;;6.78;1.80;;;2.80;99.90;;;;;;5031946;28;20405;-80
2022/04/03 04:12:44;;;;;;;6.22;2.33;;;2.60;99.90;;;;;;5032384;28;20089;-80
2022/04/03 04:15:16;;;;;;;8.10;2.47;;;2.60;99.90;;;;;;5015969;28;20049;-79
2022/04/03 04:17:54;;;;;;;5.00;2.20;;;2.60;99.90;;;;;;5032208;28;20462;-79
2022/04/03 04:20:21;;;;;;;5.70;2.00;;;2.60;99.90;;;;;;5033689;28;20038;-79
2022/04/03 04:22:50;;;;;;;5.80;2.63;;;2.60;99.90;;;;;;5015593;28;20029;-79
2022/04/03 04:25:17;;;;;;;4.55;2.15;;;2.60;99.90;;;;;;5031528;28;20083;-80
2022/04/03 04:27:44;;;;;;;3.70;2.33;;;3.10;99.90;;;;;;5032220;28;20056;-80
2022/04/03 04:30:11;;;;;;;3.00;1.98;;;2.60;99.90;;;;;;5015674;28;20041;-80
2022/04/03 04:32:42;;;;;;;4.65;2.20;;;2.60;99.90;;;;;;5032258;28;20048;-80
2022/04/03 04:35:13;;;;;;;5.38;2.22;;;2.60;99.90;;;;;;5015937;28;20143;-81
2022/04/03 04:37:40;;;;;;;4.78;2.00;;;3.50;99.90;;;;;;5032279;28;20042;-81
2022/04/03 04:40:06;;;;;;;5.80;2.30;;;3.50;99.90;;;;;;5032256;28;20486;-80
2022/04/03 04:42:32;;;;;;;3.97;2.17;;;2.60;99.90;;;;;;5031990;28;20492;-81
2022/04/03 04:44:58;;;;;;;2.60;1.90;;;2.60;99.90;;;;;;5031725;28;20041;-81
2022/04/03 04:47:26;;;;;;;5.35;2.20;;;2.80;99.90;;;;;;5032315;28;20112;-81
2022/04/03 04:49:52;;;;;;;3.55;2.00;;;2.70;99.90;;;;;;5033150;28;20037;-81
2022/04/03 04:52:18;;;;;;;2.78;1.73;;;2.50;99.90;;;;;;5031909;28;20553;-81
2022/04/03 04:54:44;;;;;;;6.50;2.38;;;2.50;99.90;;;;;;5016071;28;20095;-81
2022/04/03 04:57:09;;;;;;;5.15;2.30;;;2.50;99.90;;;;;;4999681;28;20472;-81
2022/04/03 04:59:36;;;;;;;4.40;2.38;;;1.90;99.90;;;;;;5032062;28;20106;-81
2022/04/03 05:02:05;;;;;;;6.50;2.30;;;2.40;99.90;;;;;;5032015;28;20042;-81
2022/04/03 05:04:31;;;;;;;8.25;2.10;;;2.40;99.90;;;;;;5015644;28;20038;-81
2022/04/03 05:06:56;;;;;;;7.60;2.58;;;1.60;99.90;;;;;;4998927;28;20060;-80
2022/04/03 05:09:23;;;;;;;5.43;2.30;;;2.40;99.90;;;;;;5032078;28;20033;-80
2022/04/03 05:11:49;;;;;;;5.70;2.30;;;2.60;99.90;;;;;;5031478;28;20057;-80
2022/04/03 05:14:18;;;;;;;5.22;2.25;;;2.40;99.90;;;;;;5030635;28;20038;-80
2022/04/03 05:16:44;;;;;;;6.95;2.70;;;2.30;99.90;;;;;;5031639;28;20041;-80
2022/04/03 05:19:13;;;;;;;6.68;2.58;;;2.30;99.90;;;;;;5031516;28;20453;-80
2022/04/03 05:21:40;;;;;;;6.35;2.40;;;2.70;99.90;;;;;;5015763;28;20052;-80
2022/04/03 05:24:06;;;;;;;3.53;2.28;;;2.40;99.90;;;;;;5032768;28;20052;-80
2022/04/03 05:26:32;;;;;;;6.13;2.70;;;2.70;99.90;;;;;;5032139;28;20033;-79
2022/04/03 05:28:58;;;;;;;7.53;2.58;;;2.10;99.90;;;;;;5014704;28;20088;-79
2022/04/03 05:31:26;;;;;;;5.20;2.28;;;2.30;99.90;;;;;;5016696;28;20038;-81
2022/04/03 05:33:55;;;;;;;6.72;2.72;;;2.30;99.90;;;;;;5035657;28;20045;-81
2022/04/03 05:36:24;;;;;;;4.85;2.40;;;2.40;99.90;;;;;;5036953;28;20041;-81
2022/04/03 05:38:50;;;;;;;8.38;2.92;;;2.40;99.90;;;;;;5018707;28;20099;-79
2022/04/03 05:41:16;;;;;;;10.15;3.03;;;2.50;99.90;;;;;;5002275;28;20041;-79
2022/04/03 05:43:44;;;;;;;7.03;2.40;;;2.50;99.90;;;;;;5018665;28;20045;-78
2022/04/03 05:46:10;;;;;;;6.05;3.03;;;2.50;99.90;;;;;;5034932;28;20481;-79
2022/04/03 05:48:37;;;;;;;10.05;2.80;;;3.50;99.90;;;;;;5017269;28;20120;-79
2022/04/03 05:51:02;;;;;;;7.18;2.83;;;2.60;99.90;;;;;;5053800;28;20086;-79
2022/04/03 05:53:29;;;;;;;6.82;2.88;;;2.40;99.90;;;;;;5055004;28;20041;-80
2022/04/03 05:55:57;;;;;;;6.03;3.00;;;3.20;99.90;;;;;;5031523;28;20080;-79
2022/04/03 05:58:24;;;;;;;5.32;2.80;;;3.60;99.90;;;;;;5034923;28;20421;-81
2022/04/03 06:00:50;;;;;;;4.03;2.50;;;2.50;99.90;;;;;;5035299;28;20100;-82
2022/04/03 06:03:15;;;;;;;5.05;2.70;;;2.40;99.90;;;;;;5035078;28;20084;-80
2022/04/03 06:05:41;;;;;;;5.72;2.70;;;2.60;99.90;;;;;;5035536;28;20127;-81
2022/04/03 06:08:07;;;;;;;6.97;2.70;;;2.90;99.90;;;;;;5035961;28;20045;-80
2022/04/03 06:10:36;;;;;;;8.10;2.85;;;2.50;99.90;;;;;;5020345;28;20059;-78
2022/04/03 06:13:08;;;;;;;5.80;2.85;;;2.70;99.90;;;;;;5038140;28;20033;-81
2022/04/03 06:15:39;;;;;;;12.05;2.75;;;2.80;99.90;;;;;;5055649;28;20036;-79
2022/04/03 06:18:07;;;;;;;9.30;2.60;;;2.80;99.90;;;;;;5055344;28;20037;-78
2022/04/03 06:20:33;;;;;;;6.38;3.08;;;3.60;99.90;;;;;;5021441;28;20056;-79
2022/04/03 06:22:59;;;;;;;6.22;2.50;;;3.00;99.90;;;;;;5036804;28;20029;-79
2022/04/03 06:25:25;;;;;;;7.80;2.90;;;3.60;99.90;;;;;;5037638;28;20103;-79
2022/04/03 06:27:56;;;;;;;6.72;2.30;;;2.80;99.90;;;;;;5004924;28;20037;-78
2022/04/03 06:30:23;;;;;;;9.38;2.50;;;2.90;99.90;;;;;;5021299;28;20048;-79
2022/04/03 06:32:49;;;;;;;8.07;2.35;;;2.90;99.90;;;;;;5037219;28;20048;-80
2022/04/03 06:35:14;;;;;;;7.85;2.83;;;2.90;99.90;;;;;;5037796;28;20025;-80
2022/04/03 06:37:41;;;;;;;11.52;2.83;;;3.60;99.90;;;;;;5020782;28;20047;-79
2022/04/03 06:40:07;;;;;;;6.60;2.30;;;3.20;99.90;;;;;;5054428;28;20040;-78
2022/04/03 06:42:34;;;;;;;8.38;2.38;;;3.00;99.90;;;;;;5021087;28;20040;-79
2022/04/03 06:45:01;;;;;;;5.80;2.47;;;3.40;99.90;;;;;;5054990;28;20048;-79
2022/04/03 06:47:28;;;;;;;6.57;2.55;;;4.00;99.90;;;;;;5045794;28;20044;-79
2022/04/03 06:49:54;;;;;;;8.40;2.10;;;3.80;99.90;;;;;;5037372;28;20490;-79
2022/04/03 06:52:20;;;;;;;3.95;2.33;;;3.80;99.90;;;;;;5021097;28;20041;-79
2022/04/03 06:54:46;;;;;;;8.48;2.22;;;3.40;99.90;;;;;;5036275;28;20053;-78
2022/04/03 06:57:16;;;;;;;9.05;2.42;;;3.50;99.90;;;;;;5020400;28;20040;-78
2022/04/03 06:59:43;;;;;;;6.97;2.42;;;3.40;99.90;;;;;;5054377;28;20045;-78
2022/04/03 07:02:12;;;;;;;8.10;2.40;;;3.50;99.90;;;;;;5036136;28;20048;-79
2022/04/03 07:04:38;;;;;;;5.53;2.15;;;3.30;99.90;;;;;;5021059;28;20389;-79
2022/04/03 07:07:04;;;;;;;9.25;2.42;;;4.20;99.90;;;;;;5020625;28;20036;-80
2022/04/03 07:09:30;;;;;;;6.00;2.10;;;3.70;99.90;;;;;;5036851;28;20045;-80
2022/04/03 07:11:59;;;;;;;7.30;2.22;;;4.20;99.90;;;;;;5019366;28;20064;-80
2022/04/03 07:14:29;;;;;;;7.60;2.67;;;3.90;99.90;;;;;;5054839;28;20033;-79
2022/04/03 07:16:55;;;;;;;6.00;1.77;;;4.00;99.90;;;;;;5036845;28;20036;-80
2022/04/03 07:19:21;;;;;;;4.75;1.92;;;4.10;99.90;;;;;;5036660;28;20041;-80
2022/04/03 07:21:47;;;;;;;3.22;1.65;;;4.10;99.90;;;;;;5054570;28;20033;-81
2022/04/03 07:24:16;;;;;;;8.32;2.03;;;4.80;99.90;;;;;;5036597;28;20492;-78
2022/04/03 07:26:41;;;;;;;5.32;1.58;;;4.50;99.90;;;;;;5036652;28;20059;-81
2022/04/03 07:29:10;;;;;;;4.18;1.80;;;4.30;99.90;;;;;;5035245;28;20091;-79
2022/04/03 07:31:35;;;;;;;7.32;1.90;;;4.30;99.90;;;;;;5035930;28;20045;-79
2022/04/03 07:34:01;;;;;;;6.40;1.35;;;4.30;99.90;;;;;;5019631;28;20075;-80
2022/04/03 07:36:29;;;;;;;5.80;1.38;;;4.30;99.90;;;;;;5036408;28;20128;-80
2022/04/03 07:38:55;;;;;;;4.35;1.40;;;4.40;99.90;;;;;;5054315;28;20041;-77
2022/04/03 07:41:27;;;;;;;4.63;1.13;;;4.40;99.90;;;;;;5019446;28;20043;-79
2022/04/03 07:43:53;;;;;;;2.53;0.85;;;4.90;99.90;;;;;;5036556;28;20033;-79
2022/04/03 07:46:22;;;;;;;3.88;1.17;;;4.50;99.90;;;;;;5019311;28;20087;-79
2022/04/03 07:48:48;;;;;;;4.63;0.90;;;5.40;99.90;;;;;;5035877;28;20511;-80
2022/04/03 07:51:19;;;;;;;3.45;0.98;;;4.50;99.90;;;;;;5036070;28;20041;-80
2022/04/03 07:53:45;;;;;;;3.75;0.90;;;4.60;99.90;;;;;;5035310;28;20477;-78
2022/04/03 07:56:11;;;;;;;4.65;0.95;;;4.60;99.90;;;;;;5035541;28;20037;-79
2022/04/03 07:58:37;;;;;;;3.17;0.95;;;4.70;99.90;;;;;;5035715;28;20033;-79
2022/04/03 08:01:04;;;;;;;4.97;1.30;;;4.70;99.90;;;;;;5051047;28;20497;-87
2022/04/03 08:03:38;;;;;;;4.30;1.00;;;4.80;99.90;;;;;;5032609;28;20120;-82
2022/04/03 08:06:04;;;;;;;2.33;1.08;;;4.90;99.90;;;;;;5026967;28;20417;-82
2022/04/03 08:08:31;;;;;;;5.72;1.20;;;5.60;99.90;;;;;;5018941;28;20048;-80
2022/04/03 08:10:56;;;;;;;3.47;1.20;;;5.30;99.90;;;;;;5035809;28;20053;-79
2022/04/03 08:13:22;;;;;;;7.90;1.20;;;5.50;99.90;;;;;;5016201;28;20041;-81
2022/04/03 08:15:51;;;;;;;6.50;1.50;;;5.10;99.90;;;;;;4996844;28;20499;-81
2022/04/03 08:18:17;;;;;;;5.93;1.40;;;5.60;99.90;;;;;;5034953;28;20057;-81
2022/04/03 08:20:46;;;;;;;5.75;1.70;;;5.50;99.90;;;;;;5018123;28;20048;-77
2022/04/03 08:23:12;;;;;;;5.97;1.52;;;5.40;99.90;;;;;;5036981;28;20040;-74
2022/04/03 08:25:39;;;;;;;8.10;1.45;;;6.50;99.90;;;;;;5021832;28;20041;-76
2022/04/03 08:28:07;;;;;;;5.85;1.40;;;5.40;99.90;;;;;;5052712;28;20560;-76
2022/04/03 08:30:36;;;;;;;10.10;3.00;;;5.40;99.90;;;;;;5052489;28;20485;-76
2022/04/03 08:33:13;;;;;;;6.82;1.77;;;5.50;99.90;;;;;;5018545;28;20068;-76
2022/04/03 08:35:40;;;;;;;4.40;1.75;;;6.20;99.90;;;;;;5052987;28;20485;-80
2022/04/03 08:38:07;;;;;;;5.57;1.30;;;5.60;99.90;;;;;;5051792;28;20428;-82
2022/04/03 08:40:36;;;;;;;6.82;1.30;;;5.60;99.90;;;;;;5016151;28;20079;-84
2022/04/03 08:43:09;;;;;;;4.43;1.17;;;5.60;99.90;;;;;;5019113;28;20044;-91
2022/04/03 08:45:35;;;;;;;8.98;1.35;;;5.60;99.90;;;;;;5036267;28;20404;-82
2022/04/03 08:48:02;;;;;;;6.60;1.35;;;5.70;99.90;;;;;;5018433;28;20125;-83
2022/04/03 08:50:38;;;;;;;5.32;1.00;;;5.70;99.90;;;;;;5035810;28;20048;-83
2022/04/03 08:53:06;;;;;;;4.50;1.15;;;6.50;99.90;;;;;;5034990;28;20097;-84
2022/04/03 08:55:32;;;;;;;3.15;0.98;;;7.10;99.90;;;;;;5018659;28;20090;-83
2022/04/03 08:57:59;;;;;;;5.75;1.50;;;5.90;99.90;;;;;;5034799;28;20041;-83
2022/04/03 09:00:25;;;;;;;4.20;1.00;;;6.00;99.90;;;;;;5018637;28;20041;-82
2022/04/03 09:02:51;;;;;;;6.72;1.35;;;7.30;99.90;;;;;;5035129;28;20041;-82
2022/04/03 09:05:18;;;;;;;6.47;1.42;;;6.80;99.90;;;;;;5018161;28;20425;-82
2022/04/03 09:07:58;;;;;;;4.10;1.10;;;6.90;99.90;;;;;;5018604;28;20073;-82
2022/04/03 09:10:24;;;;;;;5.88;1.30;;;6.40;99.90;;;;;;5035085;28;20059;-81
2022/04/03 09:12:51;;;;;;;2.03;0.80;;;7.20;99.90;;;;;;5029963;28;20561;-79
2022/04/03 09:15:19;;;;;;;4.22;0.98;;;6.30;99.90;;;;;;5032454;28;20389;-80
2022/04/03 09:17:52;;;;;;;3.28;0.90;;;6.40;99.90;;;;;;5032211;28;20124;-79
2022/04/03 09:20:22;;;;;;;5.88;1.00;;;6.20;99.90;;;;;;5014804;28;20097;-79
2022/04/03 09:22:58;;;;;;;8.23;0.93;;;6.80;99.90;;;;;;5032287;28;20041;-79
2022/04/03 09:25:27;;;;;;;3.60;1.05;;;5.90;99.90;;;;;;5031281;28;20033;-80
2022/04/03 09:27:59;;;;;;;5.85;1.40;;;6.10;99.90;;;;;;5031413;28;20030;-79
2022/04/03 09:30:32;;;;;;;4.75;0.95;;;6.10;99.90;;;;;;5030940;28;20044;-79
2022/04/03 09:33:02;;;;;;;6.80;1.50;;;6.20;99.90;;;;;;5030301;28;20037;-81
2022/04/03 09:35:52;;;;;;;4.85;0.95;;;6.30;99.90;;;;;;5030969;28;20481;-74
2022/04/03 09:38:19;;;;;;;2.88;1.02;;;7.40;99.90;;;;;;5023122;28;20516;-76
2022/04/03 09:40:48;;;;;;;5.82;1.60;;;7.10;99.90;;;;;;5015177;28;20046;-75
2022/04/03 09:43:19;;;;;;;5.15;1.00;;;6.60;99.90;;;;;;5021454;28;20040;-80
2022/04/03 09:45:48;;;;;;;5.28;1.35;;;6.50;99.90;;;;;;5018396;28;20544;-77
2022/04/03 09:48:26;;;;;;;3.67;0.68;;;6.80;99.90;;;;;;5029257;28;20103;-79
2022/04/03 09:50:59;;;;;;;4.70;0.85;;;6.50;99.90;;;;;;4990013;28;20030;-81
2022/04/03 09:53:29;;;;;;;3.90;0.70;;;6.50;99.90;;;;;;5016257;28;20099;-82
2022/04/03 09:55:55;;;;;;;4.15;1.20;;;7.50;99.90;;;;;;5011266;28;20030;-76
2022/04/03 09:58:24;;;;;;;4.80;1.25;;;6.70;99.90;;;;;;5031698;28;20064;-80
2022/04/03 10:00:53;;;;;;;4.60;1.27;;;7.30;99.90;;;;;;5011557;28;20038;-80
2022/04/03 10:03:21;;;;;;;2.83;0.90;;;6.40;99.90;;;;;;4997036;28;20042;-77
2022/04/03 10:05:48;;;;;;;2.90;0.98;;;6.80;99.90;;;;;;5032867;28;20037;-78
2022/04/03 10:08:14;;;;;;;4.57;1.02;;;6.80;99.90;;;;;;4997130;28;20077;-78
2022/04/03 10:10:40;;;;;;;6.00;1.20;;;6.90;99.90;;;;;;5021685;28;20334;-77
2022/04/03 10:13:06;;;;;;;3.05;1.10;;;7.80;99.90;;;;;;5016666;28;20071;-78
2022/04/03 10:15:34;;;;;;;5.38;1.10;;;7.80;99.90;;;;;;5025444;28;20037;-82
2022/04/03 10:18:01;;;;;;;2.72;1.05;;;7.50;99.90;;;;;;5017375;28;20033;-73
2022/04/03 10:20:28;;;;;;;3.38;0.93;;;6.80;99.90;;;;;;5027783;28;20083;-74
2022/04/03 10:23:11;;;;;;;3.85;1.10;;;6.70;99.90;;;;;;5025536;28;20029;-74
2022/04/03 10:25:44;;;;;;;4.00;0.93;;;6.70;99.90;;;;;;5053167;28;20064;-79
2022/04/03 10:28:17;;;;;;;3.42;1.10;;;6.70;99.90;;;;;;5034514;28;20512;-79
2022/04/03 10:30:56;;;;;;;4.05;1.10;;;6.60;99.90;;;;;;5037412;28;20513;-80
2022/04/03 10:33:25;;;;;;;4.13;0.90;;;6.60;99.90;;;;;;5006211;28;20063;-78
2022/04/03 10:36:03;;;;;;;3.28;0.90;;;6.70;99.90;;;;;;5013972;28;20160;-76
2022/04/03 10:38:56;;;;;;;3.35;1.15;;;6.70;99.90;;;;;;5025996;28;20132;-76
2022/04/03 10:41:27;;;;;;;3.83;1.13;;;6.80;99.90;;;;;;5046749;28;20048;-75
2022/04/03 10:44:11;;;;;;;8.80;2.00;;;6.90;99.90;;;;;;5004712;28;20490;-77
2022/04/03 10:47:16;;;;;;;2.83;1.27;;;7.30;99.90;;;;;;5014694;28;20549;-80
2022/04/03 10:50:07;;;;;;;3.28;1.15;;;7.20;99.90;;;;;;5013488;28;20046;-77
2022/04/03 10:52:36;;;;;;;4.55;1.20;;;7.30;99.90;;;;;;5034037;28;20375;-76
2022/04/03 10:55:10;;;;;;;4.95;1.20;;;7.30;99.90;;;;;;5016322;28;20115;-75
2022/04/03 10:57:43;;;;;;;5.30;1.27;;;7.10;99.90;;;;;;5038394;28;20033;-76
2022/04/03 11:00:12;;;;;;;3.90;1.08;;;6.90;99.90;;;;;;5016460;28;20060;-75
2022/04/03 11:02:42;;;;;;;2.60;1.05;;;6.80;99.90;;;;;;5009860;28;20121;-74
2022/04/03 11:05:26;;;;;;;5.05;1.10;;;6.40;99.90;;;;;;4986906;28;20482;-74
2022/04/03 11:07:56;;;;;;;4.55;1.30;;;6.30;99.90;;;;;;5036832;28;20040;-74
2022/04/03 11:10:45;;;;;;;2.90;1.15;;;6.30;99.90;;;;;;5008767;28;20040;-73
2022/04/03 11:13:13;;;;;;;3.17;1.00;;;6.30;99.90;;;;;;5011385;28;20042;-81
2022/04/03 11:16:01;;;;;;;4.35;1.60;;;6.40;99.90;;;;;;5027882;28;20120;-80
2022/04/03 11:18:38;;;;;;;5.90;1.42;;;6.40;99.90;;;;;;5020543;28;20539;-81
2022/04/03 11:21:27;;;;;;;7.38;1.45;;;6.50;99.90;;;;;;5005630;28;20034;-82
2022/04/03 11:24:33;;;;;;;4.00;1.00;;;6.60;99.90;;;;;;5004498;28;20038;-82
2022/04/03 11:27:05;;;;;;;4.05;1.05;;;6.70;99.90;;;;;;5030444;28;20374;-81
2022/04/03 11:29:34;;;;;;;3.58;1.00;;;6.80;99.90;;;;;;4979861;28;20050;-82
2022/04/03 11:32:27;;;;;;;4.68;0.88;;;6.90;99.90;;;;;;5015662;28;20076;-83
2022/04/03 11:34:58;;;;;;;8.13;1.38;;;7.00;99.90;;;;;;5018584;28;20037;-84
2022/04/03 11:37:26;;;;;;;4.60;1.00;;;7.10;99.90;;;;;;5017225;28;20141;-83
2022/04/03 11:39:58;;;;;;;8.65;1.10;;;6.50;99.90;;;;;;4996757;28;20037;-83
2022/04/03 11:42:44;;;;;;;6.00;1.02;;;6.90;99.90;;;;;;5003037;28;20048;-78
2022/04/03 11:45:12;;;;;;;7.45;1.48;;;7.00;99.90;;;;;;5000782;28;20045;-82
2022/04/03 11:47:41;;;;;;;3.70;1.15;;;7.10;99.90;;;;;;5021251;28;20399;-83
2022/04/03 11:50:15;;;;;;;3.88;1.27;;;7.20;99.90;;;;;;5011967;28;20069;-84
2022/04/03 11:52:42;;;;;;;3.28;0.82;;;7.20;99.90;;;;;;5017205;28;20084;-79
2022/04/03 11:55:10;;;;;;;3.65;1.05;;;7.30;99.90;;;;;;5032835;28;20128;-80
2022/04/03 11:57:39;;;;;;;4.15;1.00;;;7.00;99.90;;;;;;5028204;28;20040;-80
2022/04/03 12:00:11;;;;;;;6.05;1.00;;;7.20;99.90;;;;;;4996887;28;20042;-79
2022/04/03 12:02:41;;;;;;;3.42;0.93;;;7.20;99.90;;;;;;5012923;28;20038;-78
2022/04/03 12:05:07;;;;;;;3.42;0.80;;;7.10;99.90;;;;;;5013443;28;20547;-77
2022/04/03 12:07:33;;;;;;;2.75;0.98;;;7.00;99.90;;;;;;5015839;28;20390;-76
2022/04/03 12:09:59;;;;;;;2.67;1.10;;;6.90;99.90;;;;;;5032172;28;20045;-76
2022/04/03 12:12:26;;;;;;;3.25;0.80;;;7.00;99.90;;;;;;5032105;28;20760;-76
2022/04/03 12:14:57;;;;;;;3.65;0.80;;;7.00;99.90;;;;;;5031548;28;20042;-76
2022/04/03 12:17:23;;;;;;;3.38;0.90;;;7.10;99.90;;;;;;5032537;28;20041;-77
2022/04/03 12:19:52;;;;;;;1.27;0.55;;;7.20;99.90;;;;;;5031703;28;20409;-76
2022/04/03 12:22:20;;;;;;;5.47;0.80;;;7.20;99.90;;;;;;5029667;28;20045;-76
2022/04/03 12:24:48;;;;;;;4.03;0.82;;;7.20;99.90;;;;;;5032043;28;20441;-76
2022/04/03 12:27:33;;;;;;;3.55;1.23;;;7.20;99.90;;;;;;5014547;28;20506;-80
2022/04/03 12:29:59;;;;;;;3.72;0.90;;;7.20;99.90;;;;;;5015481;28;20053;-81
2022/04/03 12:35:50;;;;;;;3.25;0.82;;;7.10;99.90;;;;;;4983859;28;20045;-84
2022/04/03 12:38:16;;;;;;;3.72;0.98;;;7.20;99.90;;;;;;4997982;28;20068;-83
2022/04/03 12:51:20;;;;;;;5.00;1.17;;;7.80;99.90;;;;;;4860826;29;19923;-81
2022/04/03 12:53:57;;;;;;;3.17;1.15;;;7.80;99.90;;;;;;4902091;29;20460;-81
2022/04/03 12:58:24;;;;;;;3.00;1.00;;;8.10;99.90;;;;;;4986635;28;20057;-82
2022/04/03 12:59:21;;;;;;;8.73;1.20;;;7.90;99.90;;;;;;5031679;28;20053;-82
2022/04/03 13:01:58;;;;;;;4.60;1.10;;;7.80;99.90;;;;;;5032602;28;20049;-81
2022/04/03 13:04:33;;;;;;;2.80;1.00;;;7.80;99.90;;;;;;5015117;28;20552;-82
2022/04/03 13:07:08;;;;;;;1.90;1.08;;;7.70;99.90;;;;;;5014399;28;20037;-81
2022/04/03 13:09:45;;;;;;;3.63;1.23;;;7.70;99.90;;;;;;5031163;28;20056;-80
2022/04/03 13:12:14;;;;;;;5.47;1.00;;;7.80;99.90;;;;;;5014946;28;20135;-81
2022/04/03 13:14:40;;;;;;;5.50;1.20;;;7.90;99.90;;;;;;5015126;28;20045;-80
2022/04/03 13:17:10;;;;;;;4.60;0.80;;;8.50;99.90;;;;;;5031046;28;20120;-81
2022/04/03 13:19:38;;;;;;;3.78;0.95;;;8.00;99.90;;;;;;5014690;28;20128;-81